createdAt,value
2018-03-01T00:01:57.955Z,11.43
2018-03-01T00:04:28.097Z,12.48
2018-03-01T00:06:57.859Z,19.40
2018-03-01T00:09:27.665Z,10.52
2018-03-01T00:11:57.826Z,13.68
2018-03-01T00:14:28.813Z,8.40
2018-03-01T00:16:57.965Z,16.90
2018-03-01T00:19:28.077Z,19.75
2018-03-01T00:21:58.468Z,11.12
2018-03-01T00:24:27.576Z,6.37
2018-03-01T00:26:56.906Z,7.90
2018-03-01T00:29:26.914Z,14.00
2018-03-01T00:31:57.628Z,13.40
2018-03-01T00:34:27.966Z,12.90
2018-03-01T00:36:58.227Z,10.13
2018-03-01T00:39:27.949Z,16.52
2018-03-01T00:41:58.583Z,11.85
2018-03-01T00:44:27.651Z,10.15
2018-03-01T00:46:56.973Z,13.05
2018-03-01T00:49:26.173Z,9.48
2018-03-01T00:51:55.636Z,12.15
2018-03-01T00:54:25.987Z,9.55
2018-03-01T00:56:55.207Z,15.48
2018-03-01T00:59:24.514Z,10.20
2018-03-01T01:01:54.282Z,13.00
2018-03-01T01:04:23.978Z,6.95
2018-03-01T01:06:54.132Z,12.95
2018-03-01T01:09:23.289Z,8.75
2018-03-01T01:11:53.449Z,6.85
2018-03-01T01:14:22.858Z,13.82
2018-03-01T01:16:52.687Z,14.20
2018-03-01T01:19:22.074Z,9.27
2018-03-01T01:21:51.334Z,12.98
2018-03-01T01:24:20.786Z,16.55
2018-03-01T01:26:50.011Z,14.20
2018-03-01T01:29:19.875Z,16.15
2018-03-01T01:31:48.772Z,7.15
2018-03-01T01:34:17.667Z,14.20
2018-03-01T01:36:47.490Z,16.10
2018-03-01T01:39:17.047Z,15.15
2018-03-01T01:41:45.824Z,6.85
2018-03-01T01:44:14.908Z,11.45
2018-03-01T01:46:43.814Z,17.20
2018-03-01T01:49:12.806Z,8.98
2018-03-01T01:51:42.146Z,11.27
2018-03-01T01:54:11.002Z,16.30
2018-03-01T01:56:39.490Z,15.93
2018-03-01T01:59:07.865Z,7.75
2018-03-01T02:01:36.837Z,14.25
2018-03-01T02:04:06.120Z,11.43
2018-03-01T02:06:34.615Z,19.15
2018-03-01T02:09:03.766Z,18.62
2018-03-01T02:11:32.701Z,15.35
2018-03-01T02:14:01.281Z,16.73
2018-03-01T02:16:29.667Z,12.80
2018-03-01T02:18:59.077Z,18.65
2018-03-01T02:21:28.745Z,9.63
2018-03-01T02:23:57.485Z,10.90
2018-03-01T02:26:25.967Z,15.63
2018-03-01T02:28:54.313Z,20.55
2018-03-01T02:31:23.895Z,16.05
2018-03-01T02:33:52.565Z,19.52
2018-03-01T02:36:30.237Z,18.02
2018-03-01T02:38:59.047Z,15.80
2018-03-01T02:41:27.653Z,11.30
2018-03-01T02:43:56.460Z,17.92
2018-03-01T02:46:25.558Z,14.90
2018-03-01T02:48:55.395Z,4.65
2018-03-01T02:51:24.214Z,14.75
2018-03-01T02:53:53.033Z,17.08
2018-03-01T02:56:21.988Z,9.23
2018-03-01T02:59:02.122Z,6.87
2018-03-01T03:01:31.481Z,17.67
2018-03-01T03:04:00.214Z,7.95
2018-03-01T03:06:28.617Z,9.98
2018-03-01T03:08:57.384Z,8.07
2018-03-01T03:11:26.493Z,9.52
2018-03-01T03:13:55.805Z,13.55
2018-03-01T03:16:24.445Z,14.38
2018-03-01T03:18:54.142Z,16.95
2018-03-01T03:21:23.460Z,9.07
2018-03-01T03:23:52.109Z,5.47
2018-03-01T03:26:20.691Z,11.40
2018-03-01T03:28:49.069Z,6.80
2018-03-01T03:31:17.924Z,9.85
2018-03-01T03:33:46.833Z,6.40
2018-03-01T03:36:15.642Z,7.97
2018-03-01T03:38:44.573Z,9.73
2018-03-01T03:41:13.255Z,8.60
2018-03-01T03:43:41.702Z,9.50
2018-03-01T03:46:10.550Z,9.90
2018-03-01T03:48:39.541Z,5.65
2018-03-01T03:51:08.417Z,11.90
2018-03-01T03:53:37.080Z,7.25
2018-03-01T03:56:05.778Z,6.93
2018-03-01T03:58:34.334Z,7.65
2018-03-01T04:01:02.937Z,9.27
2018-03-01T04:03:31.519Z,7.00
2018-03-01T04:06:00.862Z,11.52
2018-03-01T04:08:29.199Z,7.72
2018-03-01T04:10:57.637Z,9.90
2018-03-01T04:13:26.247Z,5.53
2018-03-01T04:15:54.900Z,16.90
2018-03-01T04:18:23.543Z,9.60
2018-03-01T04:20:51.893Z,12.37
2018-03-01T04:23:20.542Z,14.25
2018-03-01T04:25:50.536Z,16.80
2018-03-01T04:28:19.404Z,8.60
2018-03-01T04:30:48.297Z,8.15
2018-03-01T04:33:16.819Z,10.50
2018-03-01T04:35:45.847Z,14.13
2018-03-01T04:38:14.844Z,20.67
2018-03-01T04:40:44.304Z,16.85
2018-03-01T04:43:12.826Z,8.95
2018-03-01T04:45:42.521Z,9.88
2018-03-01T04:48:12.200Z,11.98
2018-03-01T04:50:40.920Z,7.05
2018-03-01T04:53:10.352Z,7.43
2018-03-01T04:55:38.670Z,9.60
2018-03-01T04:58:07.646Z,14.93
2018-03-01T05:00:36.387Z,6.07
2018-03-01T05:03:05.035Z,8.02
2018-03-01T05:05:33.598Z,9.55
2018-03-01T05:08:02.180Z,14.43
2018-03-01T05:10:30.419Z,18.90
2018-03-01T05:13:00.055Z,15.90
2018-03-01T05:15:28.848Z,4.28
2018-03-01T05:17:58.005Z,9.25
2018-03-01T05:20:27.069Z,7.22
2018-03-01T05:22:55.897Z,5.03
2018-03-01T05:25:24.512Z,16.62
2018-03-01T05:27:53.712Z,13.60
2018-03-01T05:30:22.797Z,10.00
2018-03-01T05:32:51.802Z,13.65
2018-03-01T05:35:20.867Z,10.32
2018-03-01T05:37:50.096Z,7.35
2018-03-01T05:40:19.250Z,10.98
2018-03-01T05:42:48.008Z,9.00
2018-03-01T05:45:18.488Z,9.35
2018-03-01T05:47:47.680Z,10.65
2018-03-01T05:50:16.152Z,7.57
2018-03-01T05:52:44.872Z,9.30
2018-03-01T05:55:14.998Z,10.05
2018-03-01T05:57:44.010Z,17.33
2018-03-01T06:00:12.920Z,6.35
2018-03-01T06:02:41.956Z,8.68
2018-03-01T06:05:11.143Z,11.93
2018-03-01T06:07:40.961Z,12.13
2018-03-01T06:10:10.521Z,13.68
2018-03-01T06:12:39.180Z,15.18
2018-03-01T06:15:08.811Z,12.88
2018-03-01T06:17:37.938Z,10.30
2018-03-01T06:20:07.433Z,13.00
2018-03-01T06:22:36.292Z,12.93
2018-03-01T06:25:06.566Z,10.45
2018-03-01T06:27:35.912Z,8.98
2018-03-01T06:30:06.398Z,13.32
2018-03-01T06:32:35.576Z,9.98
2018-03-01T06:35:05.595Z,7.90
2018-03-01T06:37:34.149Z,7.45
2018-03-01T06:40:03.490Z,12.13
2018-03-01T06:42:33.674Z,17.00
2018-03-01T06:45:02.937Z,12.63
2018-03-01T06:47:32.232Z,15.45
2018-03-01T06:50:02.223Z,13.77
2018-03-01T06:52:32.013Z,9.75
2018-03-01T06:55:01.956Z,11.95
2018-03-01T06:57:32.223Z,13.93
2018-03-01T07:00:02.357Z,14.38
2018-03-01T07:02:31.815Z,6.50
2018-03-01T07:05:01.128Z,7.37
2018-03-01T07:07:31.138Z,6.68
2018-03-01T07:10:01.329Z,5.25
2018-03-01T07:12:31.676Z,7.80
2018-03-01T07:15:01.293Z,7.70
2018-03-01T07:17:31.181Z,5.00
2018-03-01T07:20:02.368Z,8.57
2018-03-01T07:22:33.864Z,6.65
2018-03-01T07:25:04.586Z,14.10
2018-03-01T07:27:34.388Z,10.18
2018-03-01T07:30:03.790Z,14.73
2018-03-01T07:32:33.940Z,14.70
2018-03-01T07:35:03.893Z,10.77
2018-03-01T07:37:34.234Z,22.58
2018-03-01T07:40:04.165Z,22.05
2018-03-01T07:42:33.931Z,19.45
2018-03-01T07:45:03.447Z,15.85
2018-03-01T07:47:32.610Z,15.77
2018-03-01T07:50:02.089Z,17.52
2018-03-01T07:52:31.439Z,13.48
2018-03-01T07:55:00.568Z,13.95
2018-03-01T07:57:30.762Z,14.40
2018-03-01T08:00:02.211Z,14.68
2018-03-01T08:02:31.513Z,15.30
2018-03-01T08:05:01.493Z,17.60
2018-03-01T08:07:30.884Z,18.05
2018-03-01T08:10:00.712Z,17.60
2018-03-01T08:12:29.961Z,6.95
2018-03-01T08:14:59.083Z,11.23
2018-03-01T08:17:28.981Z,11.23
2018-03-01T08:19:59.472Z,5.45
2018-03-01T08:22:29.421Z,13.93
2018-03-01T08:24:59.002Z,11.30
2018-03-01T08:27:29.045Z,13.65
2018-03-01T08:29:58.784Z,9.68
2018-03-01T08:32:28.072Z,12.40
2018-03-01T08:34:59.515Z,13.68
2018-03-01T08:37:29.890Z,17.40
2018-03-01T08:39:59.614Z,13.55
2018-03-01T08:42:29.550Z,14.30
2018-03-01T08:45:00.021Z,16.90
2018-03-01T08:47:30.344Z,7.87
2018-03-01T08:50:00.646Z,16.87
2018-03-01T08:52:30.470Z,9.73
2018-03-01T08:55:00.468Z,11.35
2018-03-01T08:57:29.746Z,11.57
2018-03-01T08:59:59.708Z,10.10
2018-03-01T09:02:28.904Z,7.50
2018-03-01T09:04:58.464Z,10.18
2018-03-01T09:07:27.550Z,14.63
2018-03-01T09:09:57.750Z,10.50
2018-03-01T09:12:26.950Z,13.95
2018-03-01T09:14:56.663Z,11.95
2018-03-01T09:17:25.760Z,11.05
2018-03-01T09:19:55.398Z,10.82
2018-03-01T09:22:24.718Z,7.95
2018-03-01T09:24:54.584Z,6.57
2018-03-01T09:27:24.864Z,7.90
2018-03-01T09:29:55.369Z,10.60
2018-03-01T09:32:24.723Z,9.18
2018-03-01T09:34:54.454Z,4.10
2018-03-01T09:37:23.721Z,12.45
2018-03-01T09:39:54.099Z,8.30
2018-03-01T09:42:23.111Z,29.65
2018-03-01T09:44:52.184Z,15.23
2018-03-01T09:47:21.850Z,7.25
2018-03-01T09:49:51.419Z,9.05
2018-03-01T09:52:21.166Z,8.52
2018-03-01T09:54:50.220Z,9.50
2018-03-01T09:57:19.231Z,9.02
2018-03-01T09:59:48.851Z,11.25
2018-03-01T10:02:18.100Z,7.55
2018-03-01T10:04:47.181Z,12.32
2018-03-01T10:07:16.669Z,7.53
2018-03-01T10:09:45.642Z,5.30
2018-03-01T10:12:14.773Z,8.35
2018-03-01T10:14:44.469Z,7.07
2018-03-01T10:17:13.739Z,8.60
2018-03-01T10:19:42.779Z,11.77
2018-03-01T10:22:12.566Z,11.82
2018-03-01T10:24:41.548Z,8.80
2018-03-01T10:27:10.667Z,8.13
2018-03-01T10:29:44.588Z,7.25
2018-03-01T10:32:14.281Z,5.62
2018-03-01T10:34:43.950Z,12.60
2018-03-01T10:37:13.121Z,10.48
2018-03-01T10:39:42.088Z,8.98
2018-03-01T10:42:12.262Z,8.25
2018-03-01T10:44:41.410Z,12.77
2018-03-01T10:47:11.671Z,10.52
2018-03-01T10:49:40.802Z,13.95
2018-03-01T10:52:10.614Z,12.73
2018-03-01T10:54:39.574Z,8.38
2018-03-01T10:57:08.968Z,11.93
2018-03-01T10:59:38.181Z,6.80
2018-03-01T11:02:08.343Z,9.45
2018-03-01T11:04:38.063Z,9.20
2018-03-01T11:07:07.327Z,8.18
2018-03-01T11:09:36.358Z,8.60
2018-03-01T11:12:06.305Z,8.55
2018-03-01T11:14:35.218Z,5.28
2018-03-01T11:17:04.196Z,10.77
2018-03-01T11:19:33.322Z,8.63
2018-03-01T11:22:02.519Z,6.72
2018-03-01T11:24:33.224Z,9.23
2018-03-01T11:27:02.678Z,9.55
2018-03-01T11:29:32.878Z,7.68
2018-03-01T11:32:01.914Z,13.70
2018-03-01T11:34:30.877Z,8.77
2018-03-01T11:37:00.504Z,6.72
2018-03-01T11:39:30.381Z,11.10
2018-03-01T11:42:00.160Z,8.13
2018-03-01T11:44:29.300Z,7.75
2018-03-01T11:46:59.028Z,10.45
2018-03-01T11:49:28.026Z,6.93
2018-03-01T11:51:57.259Z,8.45
2018-03-01T11:54:26.123Z,11.48
2018-03-01T11:56:55.166Z,13.43
2018-03-01T11:59:23.901Z,14.38
2018-03-01T12:01:52.912Z,6.45
2018-03-01T12:04:21.988Z,17.65
2018-03-01T12:06:50.759Z,6.85
2018-03-01T12:09:20.571Z,12.82
2018-03-01T12:11:50.652Z,8.57
2018-03-01T12:14:20.276Z,7.57
2018-03-01T12:16:49.915Z,10.95
2018-03-01T12:19:19.652Z,8.82
2018-03-01T12:21:48.984Z,11.48
2018-03-01T12:24:17.994Z,11.43
2018-03-01T12:26:48.325Z,28.17
2018-03-01T12:29:18.639Z,10.45
2018-03-01T12:31:48.250Z,17.40
2018-03-01T12:34:18.021Z,14.02
2018-03-01T12:36:47.494Z,15.93
2018-03-01T12:39:16.453Z,15.90
2018-03-01T12:41:46.389Z,9.70
2018-03-01T12:44:15.250Z,14.55
2018-03-01T12:46:44.158Z,8.32
2018-03-01T12:49:13.959Z,19.52
2018-03-01T12:51:43.775Z,22.80
2018-03-01T12:54:13.619Z,9.77
2018-03-01T12:56:42.778Z,14.25
2018-03-01T12:59:13.549Z,9.55
2018-03-01T13:01:42.744Z,14.95
2018-03-01T13:04:11.722Z,14.27
2018-03-01T13:06:40.826Z,13.48
2018-03-01T13:09:09.949Z,12.10
2018-03-01T13:11:39.471Z,10.10
2018-03-01T13:14:08.654Z,11.93
2018-03-01T13:16:37.677Z,15.82
2018-03-01T13:19:06.926Z,22.20
2018-03-01T13:21:36.112Z,10.70
2018-03-01T13:24:05.408Z,17.23
2018-03-01T13:26:34.407Z,12.70
2018-03-01T13:29:03.260Z,11.95
2018-03-01T13:31:33.103Z,13.77
2018-03-01T13:34:02.465Z,18.95
2018-03-01T13:36:31.680Z,13.30
2018-03-01T13:39:00.787Z,15.45
2018-03-01T13:41:29.687Z,11.77
2018-03-01T13:43:58.590Z,13.70
2018-03-01T13:46:27.753Z,12.77
2018-03-01T13:48:57.496Z,13.02
2018-03-01T13:51:26.421Z,18.20
2018-03-01T13:53:55.615Z,12.37
2018-03-01T13:56:24.460Z,14.98
2018-03-01T13:58:53.721Z,13.73
2018-03-01T14:01:22.900Z,13.38
2018-03-01T14:03:52.057Z,10.25
2018-03-01T14:06:22.144Z,11.40
2018-03-01T14:08:51.286Z,12.00
2018-03-01T14:11:20.278Z,13.45
2018-03-01T14:13:49.365Z,12.10
2018-03-01T14:16:18.505Z,10.40
2018-03-01T14:18:47.758Z,16.33
2018-03-01T14:21:16.853Z,12.60
2018-03-01T14:23:46.138Z,17.58
2018-03-01T14:26:15.046Z,9.60
2018-03-01T14:28:44.344Z,17.05
2018-03-01T14:31:13.269Z,9.85
2018-03-01T14:33:43.356Z,14.07
2018-03-01T14:36:12.700Z,9.30
2018-03-01T14:38:41.844Z,10.25
2018-03-01T14:41:10.769Z,12.10
2018-03-01T14:43:39.750Z,13.38
2018-03-01T14:46:08.634Z,16.00
2018-03-01T14:48:37.604Z,17.05
2018-03-01T14:51:06.554Z,21.27
2018-03-01T14:53:35.563Z,15.77
2018-03-01T14:56:05.139Z,10.95
2018-03-01T14:58:34.095Z,19.20
2018-03-01T15:01:02.913Z,18.90
2018-03-01T15:03:32.013Z,24.17
2018-03-01T15:06:01.012Z,21.73
2018-03-01T15:08:29.833Z,19.67
2018-03-01T15:10:58.848Z,12.50
2018-03-01T15:13:27.522Z,23.48
2018-03-01T15:15:56.660Z,12.75
2018-03-01T15:18:25.526Z,25.30
2018-03-01T15:20:54.555Z,24.25
2018-03-01T15:23:23.366Z,27.90
2018-03-01T15:25:53.238Z,22.42
2018-03-01T15:28:22.247Z,24.00
2018-03-01T15:30:51.178Z,24.37
2018-03-01T15:33:20.317Z,13.27
2018-03-01T15:35:49.177Z,22.58
2018-03-01T15:38:18.547Z,14.90
2018-03-01T15:40:48.128Z,13.65
2018-03-01T15:43:16.860Z,19.23
2018-03-01T15:45:45.976Z,23.45
2018-03-01T15:48:14.964Z,14.77
2018-03-01T15:50:44.712Z,30.42
2018-03-01T15:53:13.712Z,21.73
2018-03-01T15:55:42.516Z,22.20
2018-03-01T15:58:12.278Z,28.87
2018-03-01T16:00:41.070Z,18.98
2018-03-01T16:03:10.812Z,19.45
2018-03-01T16:05:39.846Z,19.83
2018-03-01T16:08:08.850Z,15.98
2018-03-01T16:10:37.738Z,15.23
2018-03-01T16:13:06.567Z,11.88
2018-03-01T16:15:35.390Z,23.48
2018-03-01T16:18:05.806Z,12.18
2018-03-01T16:20:35.088Z,23.45
2018-03-01T16:23:04.434Z,18.35
2018-03-01T16:25:33.951Z,23.33
2018-03-01T16:28:02.582Z,18.40
2018-03-01T16:30:31.681Z,21.62
2018-03-01T16:33:01.166Z,13.93
2018-03-01T16:35:29.991Z,17.00
2018-03-01T16:37:58.953Z,23.58
2018-03-01T16:40:27.783Z,20.27
2018-03-01T16:42:56.771Z,19.10
2018-03-01T16:45:25.658Z,26.42
2018-03-01T16:47:55.141Z,24.27
2018-03-01T16:50:23.887Z,22.87
2018-03-01T16:52:52.613Z,23.35
2018-03-01T16:55:21.938Z,19.90
2018-03-01T16:57:51.393Z,23.85
2018-03-01T17:00:21.987Z,25.67
2018-03-01T17:02:50.726Z,14.50
2018-03-01T17:05:19.533Z,19.85
2018-03-01T17:07:49.225Z,28.10
2018-03-01T17:10:17.907Z,21.33
2018-03-01T17:12:47.032Z,20.92
2018-03-01T17:15:16.361Z,22.95
2018-03-01T17:17:45.079Z,27.65
2018-03-01T17:20:16.340Z,22.50
2018-03-01T17:22:45.060Z,19.45
2018-03-01T17:25:15.331Z,22.95
2018-03-01T17:27:44.104Z,18.73
2018-03-01T17:30:13.116Z,26.00
2018-03-01T17:32:42.563Z,10.98
2018-03-01T17:35:11.530Z,26.00
2018-03-01T17:37:40.567Z,26.12
2018-03-01T17:40:10.506Z,20.17
2018-03-01T17:42:40.261Z,22.08
2018-03-01T17:45:09.144Z,25.83
2018-03-01T17:47:40.054Z,22.95
2018-03-01T17:50:08.538Z,14.32
2018-03-01T17:52:37.588Z,35.85
2018-03-01T17:55:07.081Z,17.95
2018-03-01T17:57:37.622Z,28.27
2018-03-01T18:00:06.657Z,25.27
2018-03-01T18:02:36.416Z,28.85
2018-03-01T18:05:06.405Z,23.77
2018-03-01T18:07:36.209Z,19.27
2018-03-01T18:10:05.029Z,37.10
2018-03-01T18:12:33.682Z,21.73
2018-03-01T18:15:02.296Z,23.12
2018-03-01T18:17:31.288Z,23.45
2018-03-01T18:20:00.485Z,18.65
2018-03-01T18:22:29.797Z,21.10
2018-03-01T18:24:58.462Z,23.02
2018-03-01T18:27:27.615Z,10.98
2018-03-01T18:29:57.409Z,27.77
2018-03-01T18:32:26.263Z,19.25
2018-03-01T18:34:55.093Z,24.73
2018-03-01T18:37:24.270Z,25.45
2018-03-01T18:39:53.871Z,22.40
2018-03-01T18:42:23.105Z,22.17
2018-03-01T18:44:51.871Z,22.42
2018-03-01T18:47:20.894Z,24.50
2018-03-01T18:49:49.788Z,20.30
2018-03-01T18:52:18.665Z,26.00
2018-03-01T18:54:47.637Z,21.30
2018-03-01T18:57:16.621Z,18.80
2018-03-01T18:59:45.341Z,30.98
2018-03-01T19:02:14.738Z,20.08
2018-03-01T19:04:43.646Z,13.25
2018-03-01T19:07:13.201Z,21.08
2018-03-01T19:09:42.227Z,18.20
2018-03-01T19:12:10.995Z,23.38
2018-03-01T19:14:39.966Z,23.50
2018-03-01T19:17:09.751Z,24.17
2018-03-01T19:19:39.465Z,34.97
2018-03-01T19:22:09.026Z,21.70
2018-03-01T19:24:38.665Z,25.73
2018-03-01T19:27:07.732Z,18.40
2018-03-01T19:29:37.271Z,21.52
2018-03-01T19:32:06.749Z,11.30
2018-03-01T19:34:36.069Z,16.33
2018-03-01T19:37:04.979Z,13.30
2018-03-01T19:39:34.662Z,17.80
2018-03-01T19:42:04.110Z,25.25
2018-03-01T19:44:32.520Z,29.48
2018-03-01T19:47:01.214Z,15.93
2018-03-01T19:49:30.130Z,22.50
2018-03-01T19:52:00.048Z,28.23
2018-03-01T19:54:30.014Z,24.45
2018-03-01T19:56:59.070Z,23.35
2018-03-01T19:59:28.653Z,25.08
2018-03-01T20:01:57.334Z,25.23
2018-03-01T20:04:26.264Z,22.45
2018-03-01T20:06:54.903Z,25.35
2018-03-01T20:09:23.702Z,21.73
2018-03-01T20:11:53.272Z,26.80
2018-03-01T20:14:21.894Z,34.42
2018-03-01T20:16:50.862Z,29.40
2018-03-01T20:19:19.818Z,26.75
2018-03-01T20:21:48.668Z,29.33
2018-03-01T20:24:18.348Z,35.70
2018-03-01T20:26:48.075Z,21.73
2018-03-01T20:29:16.765Z,26.73
2018-03-01T20:31:46.359Z,16.73
2018-03-01T20:34:15.177Z,22.92
2018-03-01T20:36:45.211Z,30.85
2018-03-01T20:39:15.739Z,20.58
2018-03-01T20:41:46.370Z,29.83
2018-03-01T20:44:15.981Z,15.10
2018-03-01T20:46:44.813Z,16.95
2018-03-01T20:49:14.893Z,19.58
2018-03-01T20:51:44.176Z,15.80
2018-03-01T20:54:13.138Z,26.12
2018-03-01T20:56:41.832Z,27.27
2018-03-01T20:59:11.171Z,21.27
2018-03-01T21:01:39.837Z,19.70
2018-03-01T21:04:11.892Z,25.40
2018-03-01T21:06:42.030Z,25.85
2018-03-01T21:09:12.525Z,25.33
2018-03-01T21:11:43.095Z,27.48
2018-03-01T21:14:12.194Z,26.77
2018-03-01T21:16:41.403Z,9.55
2018-03-01T21:19:11.904Z,29.12
2018-03-01T21:21:42.486Z,18.87
2018-03-01T21:24:14.385Z,34.67
2018-03-01T21:26:43.322Z,14.85
2018-03-01T21:29:15.252Z,17.27
2018-03-01T21:31:45.269Z,23.75
2018-03-01T21:34:15.027Z,17.95
2018-03-01T21:36:44.356Z,23.02
2018-03-01T21:39:14.394Z,24.27
2018-03-01T21:41:44.374Z,20.62
2018-03-01T21:44:14.366Z,19.50
2018-03-01T21:46:52.772Z,18.77
2018-03-01T21:49:21.479Z,21.12
2018-03-01T21:51:50.675Z,14.80
2018-03-01T21:54:20.741Z,25.95
2018-03-01T21:56:50.518Z,22.65
2018-03-01T21:59:19.578Z,19.58
2018-03-01T22:01:48.268Z,25.83
2018-03-01T22:04:17.985Z,21.98
2018-03-01T22:06:46.790Z,32.65
2018-03-01T22:09:16.600Z,19.25
2018-03-01T22:11:45.797Z,26.92
2018-03-01T22:14:14.812Z,27.17
2018-03-01T22:16:44.448Z,30.55
2018-03-01T22:19:13.269Z,17.67
2018-03-01T22:21:42.706Z,26.73
2018-03-01T22:24:12.591Z,23.33
2018-03-01T22:26:41.693Z,32.05
2018-03-01T22:29:10.591Z,34.97
2018-03-01T22:31:39.936Z,32.25
2018-03-01T22:34:10.180Z,32.83
2018-03-01T22:36:39.389Z,27.42
2018-03-01T22:41:52.036Z,22.75
2018-03-01T22:44:22.190Z,28.27
2018-03-01T22:46:52.623Z,32.80
2018-03-01T22:49:23.601Z,31.70
2018-03-01T22:51:52.784Z,37.50
2018-03-01T22:54:22.691Z,32.03
2018-03-01T22:56:52.619Z,24.23
2018-03-01T22:59:22.554Z,30.60
2018-03-01T23:01:51.566Z,37.92
2018-03-01T23:04:21.610Z,29.50
2018-03-01T23:06:55.243Z,29.42
2018-03-01T23:09:24.976Z,36.75
2018-03-01T23:11:54.507Z,32.33
2018-03-01T23:14:24.572Z,26.50
2018-03-01T23:16:54.315Z,38.35
2018-03-01T23:19:24.743Z,37.25
2018-03-01T23:21:55.213Z,28.23
2018-03-01T23:24:24.940Z,26.17
2018-03-01T23:26:55.181Z,37.03
2018-03-01T23:29:24.410Z,33.88
2018-03-01T23:31:54.402Z,25.75
2018-03-01T23:34:24.308Z,32.22
2018-03-01T23:36:53.672Z,30.65
2018-03-01T23:39:23.667Z,30.45
2018-03-01T23:41:53.685Z,26.30
2018-03-01T23:44:23.050Z,23.33
2018-03-01T23:46:52.869Z,28.17
2018-03-01T23:49:23.192Z,28.00
2018-03-01T23:51:55.726Z,21.20
2018-03-01T23:54:25.795Z,27.05
2018-03-01T23:56:57.046Z,38.13
2018-03-01T23:59:27.329Z,31.40
